Breckenridge, MN

11:43 AM CST on January 24, 2017 (GMT -0600)
Stern

Weather History for KBWP - March, 2014

Change the Weather History Date:

Friday, March 14, 2014

  Actual Average (KFFM) Record (KFFM)
Temperature  
Mean Temperature 29 °F -  
Max Temperature 37 °F 33 °F 59 °F (2003)
Min Temperature 21 °F 19 °F -16 °F (1993)
Degree Days  
Heating Degree Days 36    
Moisture  
Dew Point 26 °F    
Average Humidity 81    
Maximum Humidity 93    
Minimum Humidity 69    
Precipitation  
Precipitation 0.00 in - - ()
Sea Level Pressure  
Sea Level Pressure 29.78 in    
Wind  
Wind Speed 15 mph (NNW)    
Max Wind Speed 23 mph    
Max Gust Speed 30 mph    
Visibility 10 miles    
Events      
Averages and records for this station are not official NWS values.
T = Trace of Precipitation, MM = Missing Value Source: NWS Daily Summary

Daily Weather History Graph

Daily Weather History Graph

Search for Another Location

Airport or City:

Trip Planner

Search our weather history database for the weather conditions in past years. The results will help you decide how hot, cold, wet, or windy it might be!

Date:

Astronomy

Mar. 14, 2014 Rise Set
Actual Time 7:41 AM CDT 7:30 PM CDT
Civil Twilight 7:11 AM CDT 8:00 PM CDT
Nautical Twilight 6:36 AM CDT 8:35 PM CDT
Astronomical Twilight 6:00 AM CDT 9:11 PM CDT
Moon 5:50 PM CDT (3/14) 6:26 AM CDT (3/14)
Length of Visible Light 12h 49m
Length of Day
11h 49m
Waxing Gibbous, 96% of the Moon is Illuminated
Mar 14
Waxing Gibbous
Mar 16
Full
Mar 23
Last Quarter
Mar 30
New
Apr 7
First Quarter

Hourly Weather History & Observations

Time (CDT) Temp. Windchill Dew Point Humidity Pressure Visibility Wind Dir Wind Speed Gust Speed Precip Events Conditions
12:15 AM 37.4 °F 27.8 °F 30.2 °F 75% 29.59 in 10.0 mi NW 17.3 mph - N/A   Scattered Clouds
12:35 AM 37.4 °F 28.2 °F 30.2 °F 75% 29.59 in 10.0 mi NW 16.1 mph - N/A   Overcast
12:55 AM 37.4 °F 28.2 °F 30.2 °F 75% 29.59 in 10.0 mi NW 16.1 mph 20.7 mph N/A   Overcast
1:15 AM 35.6 °F 27.1 °F 30.2 °F 81% 29.59 in 10.0 mi NW 12.7 mph - N/A   Scattered Clouds
1:35 AM 33.8 °F 25.3 °F 28.4 °F 81% 29.60 in 10.0 mi WNW 11.5 mph - N/A   Clear
1:55 AM 33.8 °F 25.8 °F 28.4 °F 81% 29.60 in 10.0 mi WNW 10.4 mph - N/A   Clear
2:15 AM 33.8 °F 23.5 °F 30.2 °F 87% 29.61 in 10.0 mi WNW 16.1 mph 20.7 mph N/A   Clear
2:35 AM 33.8 °F 23.9 °F 30.2 °F 87% 29.61 in 10.0 mi WNW 15.0 mph - N/A   Clear
2:55 AM 33.8 °F 25.3 °F 30.2 °F 87% 29.62 in 10.0 mi WNW 11.5 mph - N/A   Clear
3:15 AM 33.8 °F 25.3 °F 30.2 °F 87% 29.62 in 10.0 mi WNW 11.5 mph - N/A   Scattered Clouds
3:35 AM 33.8 °F 25.3 °F 30.2 °F 87% 29.62 in 10.0 mi WNW 11.5 mph - N/A   Scattered Clouds
3:55 AM 33.8 °F 25.3 °F 30.2 °F 87% 29.62 in 10.0 mi WNW 11.5 mph - N/A   Clear
4:15 AM 33.8 °F 24.3 °F 30.2 °F 87% 29.62 in 10.0 mi WNW 13.8 mph - N/A   Mostly Cloudy
4:35 AM 33.8 °F 24.3 °F 30.2 °F 87% 29.62 in 10.0 mi West 13.8 mph - N/A   Mostly Cloudy
4:55 AM 33.8 °F 23.9 °F 30.2 °F 87% 29.61 in 10.0 mi West 15.0 mph - N/A   Overcast
5:15 AM 33.8 °F 23.2 °F 30.2 °F 87% 29.61 in 10.0 mi West 17.3 mph - N/A   Overcast
5:35 AM 33.8 °F 23.2 °F 30.2 °F 87% 29.62 in 10.0 mi West 17.3 mph 23.0 mph N/A   Overcast
5:55 AM 33.8 °F 23.5 °F 30.2 °F 87% 29.63 in 10.0 mi West 16.1 mph - N/A   Overcast
6:15 AM 33.8 °F 23.9 °F 30.2 °F 87% 29.64 in 10.0 mi West 15.0 mph - N/A   Overcast
6:35 AM 33.8 °F 23.5 °F 30.2 °F 87% 29.64 in 10.0 mi WNW 16.1 mph - N/A   Overcast
6:55 AM 33.8 °F 23.2 °F 30.2 °F 87% 29.64 in 10.0 mi WNW 17.3 mph - N/A   Overcast
7:15 AM 33.8 °F 23.5 °F 32.0 °F 93% 29.65 in 10.0 mi WNW 16.1 mph - N/A   Overcast
7:35 AM 33.8 °F 24.3 °F 32.0 °F 93% 29.66 in 10.0 mi WNW 13.8 mph - N/A   Overcast
7:55 AM 33.8 °F 23.2 °F 32.0 °F 93% 29.67 in 10.0 mi WNW 17.3 mph - N/A   Overcast
8:15 AM 33.8 °F 23.9 °F 32.0 °F 93% 29.67 in 10.0 mi WNW 15.0 mph - N/A   Overcast
8:35 AM 33.8 °F 24.3 °F 32.0 °F 93% 29.68 in 10.0 mi WNW 13.8 mph - N/A   Overcast
8:55 AM 33.8 °F 24.3 °F 32.0 °F 93% 29.68 in 10.0 mi WNW 13.8 mph - N/A   Overcast
9:15 AM 33.8 °F 23.9 °F 32.0 °F 93% 29.69 in 5.0 mi NW 15.0 mph - N/A   Overcast
9:35 AM 35.6 °F 25.9 °F 32.0 °F 87% 29.70 in 10.0 mi NW 16.1 mph - N/A   Overcast
9:55 AM 35.6 °F 24.2 °F 32.0 °F 87% 29.72 in 10.0 mi NNW 21.9 mph 29.9 mph N/A   Overcast
10:15 AM 32.0 °F 21.6 °F 30.2 °F 93% 29.74 in 10.0 mi North 15.0 mph 23.0 mph N/A   Overcast
10:35 AM 32.0 °F 21.6 °F 30.2 °F 93% 29.75 in 10.0 mi North 15.0 mph - N/A   Overcast
10:55 AM 32.0 °F 20.8 °F 28.4 °F 87% 29.76 in 10.0 mi North 17.3 mph 21.9 mph N/A   Overcast
11:15 AM 30.2 °F 19.8 °F 28.4 °F 93% 29.77 in 10.0 mi North 13.8 mph 17.3 mph N/A   Overcast
11:35 AM 32.0 °F 22.1 °F 28.4 °F 87% 29.79 in 10.0 mi NNW 13.8 mph 23.0 mph N/A   Overcast
11:55 AM 30.2 °F 19.8 °F 26.6 °F 86% 29.79 in 10.0 mi North 13.8 mph 19.6 mph N/A   Overcast
12:15 PM 30.2 °F 18.5 °F 26.6 °F 86% 29.80 in 10.0 mi North 17.3 mph 21.9 mph N/A   Overcast
12:35 PM 30.2 °F 19.3 °F 26.6 °F 86% 29.81 in 10.0 mi North 15.0 mph - N/A   Overcast
12:55 PM 30.2 °F 18.5 °F 24.8 °F 80% 29.81 in 10.0 mi NNW 17.3 mph 23.0 mph N/A   Overcast
1:15 PM 30.2 °F 18.1 °F 24.8 °F 80% 29.82 in 10.0 mi NNW 18.4 mph 25.3 mph N/A   Overcast
1:35 PM 30.2 °F 18.9 °F 23.0 °F 75% 29.83 in 10.0 mi NNW 16.1 mph 24.2 mph N/A   Overcast
1:55 PM 30.2 °F 17.4 °F 23.0 °F 75% 29.84 in 10.0 mi NNW 20.7 mph 26.5 mph N/A   Overcast
2:15 PM 30.2 °F 18.5 °F 23.0 °F 75% 29.84 in 10.0 mi North 17.3 mph 26.5 mph N/A   Overcast
2:35 PM 32.0 °F 19.2 °F 23.0 °F 69% 29.84 in 10.0 mi NNW 23.0 mph 27.6 mph N/A   Mostly Cloudy
2:55 PM 32.0 °F 20.1 °F 23.0 °F 69% 29.85 in 10.0 mi NNW 19.6 mph 24.2 mph N/A   Mostly Cloudy
3:15 PM 32.0 °F 20.5 °F 23.0 °F 69% 29.85 in 10.0 mi NNW 18.4 mph 26.5 mph N/A   Mostly Cloudy
3:35 PM 32.0 °F 21.2 °F 23.0 °F 69% 29.86 in 10.0 mi NNW 16.1 mph - N/A   Scattered Clouds
3:55 PM 32.0 °F 21.6 °F 23.0 °F 69% 29.87 in 10.0 mi North 15.0 mph - N/A   Mostly Cloudy
4:15 PM 32.0 °F 22.1 °F 23.0 °F 69% 29.87 in 10.0 mi North 13.8 mph 19.6 mph N/A   Mostly Cloudy
4:35 PM 32.0 °F 22.5 °F 23.0 °F 69% 29.88 in 10.0 mi NNW 12.7 mph - N/A   Scattered Clouds
4:55 PM 32.0 °F 22.5 °F 23.0 °F 69% 29.89 in 10.0 mi NNW 12.7 mph 20.7 mph N/A   Scattered Clouds
5:15 PM 30.2 °F 21.3 °F 23.0 °F 75% 29.90 in 10.0 mi North 10.4 mph - N/A   Overcast
5:35 PM 30.2 °F 19.8 °F 21.2 °F 69% 29.91 in 10.0 mi NNW 13.8 mph 17.3 mph N/A   Overcast
5:55 PM 30.2 °F 20.2 °F 21.2 °F 69% 29.91 in 10.0 mi North 12.7 mph - N/A   Overcast
6:15 PM 30.2 °F 20.2 °F 21.2 °F 69% 29.92 in 10.0 mi North 12.7 mph 17.3 mph N/A   Overcast
6:35 PM 28.4 °F 18.5 °F 21.2 °F 74% 29.92 in 10.0 mi North 11.5 mph - N/A   Overcast
6:55 PM 28.4 °F 17.0 °F 21.2 °F 74% 29.93 in 10.0 mi North 15.0 mph - N/A   Overcast
7:15 PM 28.4 °F 17.0 °F 21.2 °F 74% 29.94 in 10.0 mi North 15.0 mph - N/A   Overcast
7:35 PM 28.4 °F 19.1 °F 21.2 °F 74% 29.95 in 10.0 mi North 10.4 mph - N/A   Overcast
7:55 PM 28.4 °F 19.7 °F 21.2 °F 74% 29.96 in 10.0 mi North 9.2 mph 17.3 mph N/A   Overcast
8:15 PM 26.6 °F 15.7 °F 19.4 °F 74% 29.97 in 10.0 mi NNE 12.7 mph - N/A   Overcast
8:35 PM 26.6 °F 16.2 °F 19.4 °F 74% 29.97 in 10.0 mi NNE 11.5 mph - N/A   Overcast
8:55 PM 26.6 °F 17.5 °F 19.4 °F 74% 29.98 in 10.0 mi NNE 9.2 mph - N/A   Mostly Cloudy
9:15 PM 24.8 °F 13.4 °F 19.4 °F 80% 29.98 in 10.0 mi NNE 12.7 mph - N/A   Clear
9:35 PM 24.8 °F 14.6 °F 19.4 °F 80% 29.99 in 10.0 mi North 10.4 mph - N/A   Clear
9:55 PM 24.8 °F 15.3 °F 17.6 °F 74% 29.99 in 10.0 mi NNE 9.2 mph - N/A   Clear
10:15 PM 23.0 °F 11.7 °F 15.8 °F 74% 30.00 in 10.0 mi NNE 11.5 mph - N/A   Clear
10:35 PM 23.0 °F 11.7 °F 15.8 °F 74% 30.00 in 10.0 mi NNE 11.5 mph - N/A   Clear
10:55 PM 23.0 °F 11.7 °F 15.8 °F 74% 30.00 in 10.0 mi NNE 11.5 mph - N/A   Clear
11:15 PM 21.2 °F 8.9 °F 14.0 °F 74% 30.01 in 10.0 mi NNE 12.7 mph - N/A   Clear
11:35 PM 21.2 °F 10.1 °F 14.0 °F 74% 30.01 in 10.0 mi North 10.4 mph - N/A   Clear
11:55 PM 21.2 °F 10.9 °F 14.0 °F 74% 30.01 in 10.0 mi North 9.2 mph - N/A   Clear